Time;durP1;ratioP1;P1;durP2;ratioP2;P2;SDS_P1;SDS_P2;PMS_P1;PMS_P2;Temp;Humidity;BMP_temperature;BMP_pressure;BME280_temperature;BME280_humidity;BME280_pressure;Samples;Min_cycle;Max_cycle;Signal;HPM_P1;HPM_P2
2022/09/05 00:02:01;;;;;;;3.55;2.47;;;15.80;99.90;;;;;;5104545;27;20097;-66
2022/09/05 00:04:43;;;;;;;3.60;2.88;;;15.80;99.90;;;;;;5099173;28;20043;-66
2022/09/05 00:07:52;;;;;;;6.30;2.90;;;15.70;99.90;;;;;;5116054;27;20062;-66
2022/09/05 00:10:22;;;;;;;3.58;2.83;;;15.60;99.90;;;;;;5105016;28;20380;-67
2022/09/05 00:12:50;;;;;;;5.15;2.88;;;15.60;99.90;;;;;;5111933;27;20136;-66
2022/09/05 00:15:22;;;;;;;5.20;2.83;;;15.60;99.90;;;;;;5125239;27;20116;-66
2022/09/05 00:17:57;;;;;;;5.43;2.40;;;15.60;99.90;;;;;;5105020;27;20054;-66
2022/09/05 00:20:41;;;;;;;5.28;2.80;;;15.60;99.90;;;;;;5099429;28;20066;-67
2022/09/05 00:23:31;;;;;;;4.50;2.65;;;15.60;99.90;;;;;;5091829;28;20048;-67
2022/09/05 00:26:16;;;;;;;3.20;2.25;;;15.60;99.90;;;;;;5094415;28;20043;-67
2022/09/05 00:29:00;;;;;;;3.90;2.67;;;15.50;99.90;;;;;;5092851;27;20108;-68
2022/09/05 00:31:45;;;;;;;3.22;2.10;;;15.50;99.90;;;;;;5087937;28;20070;-67
2022/09/05 00:34:17;;;;;;;4.22;2.60;;;15.60;99.90;;;;;;5095139;28;20078;-67
2022/09/05 00:36:52;;;;;;;5.13;2.55;;;15.60;99.90;;;;;;5092265;28;20049;-67
2022/09/05 00:39:23;;;;;;;3.55;2.42;;;15.50;99.90;;;;;;5096738;28;20054;-67
2022/09/05 00:41:51;;;;;;;2.97;2.22;;;15.50;99.90;;;;;;5099495;28;20032;-67
2022/09/05 00:44:21;;;;;;;3.20;2.30;;;15.50;99.90;;;;;;5086737;28;20043;-68
2022/09/05 00:46:54;;;;;;;2.85;2.00;;;15.50;99.90;;;;;;5099198;28;20048;-66
2022/09/05 00:49:31;;;;;;;4.60;2.17;;;15.50;99.90;;;;;;5081090;28;20448;-64
2022/09/05 00:52:13;;;;;;;2.83;2.42;;;15.50;99.90;;;;;;5106817;28;20051;-66
2022/09/05 00:55:01;;;;;;;3.47;2.22;;;15.40;99.90;;;;;;5089280;28;20062;-66
2022/09/05 00:57:44;;;;;;;2.83;2.17;;;15.40;99.90;;;;;;5097296;28;20574;-66
2022/09/05 01:00:18;;;;;;;7.15;2.35;;;15.40;99.90;;;;;;5096528;28;20047;-66
2022/09/05 01:03:08;;;;;;;2.38;1.80;;;15.40;99.90;;;;;;5057209;28;20045;-66
2022/09/05 01:06:01;;;;;;;3.78;2.70;;;15.40;99.90;;;;;;5048691;28;20835;-64
2022/09/05 01:08:44;;;;;;;5.22;2.55;;;15.40;99.90;;;;;;5055717;28;20041;-66
2022/09/05 01:11:44;;;;;;;4.70;2.47;;;15.40;99.90;;;;;;5062151;28;20040;-66
2022/09/05 01:14:19;;;;;;;3.58;2.22;;;15.40;99.90;;;;;;5058965;28;20127;-66
2022/09/05 01:17:18;;;;;;;3.75;2.58;;;15.40;99.90;;;;;;5046250;28;20043;-65
2022/09/05 01:20:03;;;;;;;3.53;2.40;;;15.30;99.90;;;;;;5059589;28;20033;-67
2022/09/05 01:22:47;;;;;;;3.28;2.13;;;15.30;99.90;;;;;;5050639;28;20123;-66
2022/09/05 01:25:47;;;;;;;3.50;2.30;;;15.30;99.90;;;;;;5057093;28;20044;-65
2022/09/05 01:28:16;;;;;;;6.57;2.00;;;15.30;99.90;;;;;;5056859;28;20044;-66
2022/09/05 01:31:03;;;;;;;2.83;1.95;;;15.30;99.90;;;;;;5049336;28;20095;-66
2022/09/05 01:33:40;;;;;;;;;;;15.40;99.90;;;;;;5055441;28;20568;-65
2022/09/05 01:36:38;;;;;;;3.17;2.20;;;15.30;99.90;;;;;;5047838;28;19921;-66
2022/09/05 01:39:16;;;;;;;4.10;2.08;;;15.40;99.90;;;;;;5056143;28;20120;-66
2022/09/05 01:42:07;;;;;;;2.42;1.92;;;15.40;99.90;;;;;;5055554;28;20033;-66
2022/09/05 01:44:56;;;;;;;2.90;1.92;;;15.30;99.90;;;;;;5051559;28;20148;-66
2022/09/05 01:47:46;;;;;;;2.83;2.20;;;15.30;99.90;;;;;;5046384;28;20126;-65
2022/09/05 01:50:31;;;;;;;4.65;2.38;;;15.30;99.90;;;;;;5059321;28;20119;-66
2022/09/05 01:53:24;;;;;;;4.03;2.10;;;15.30;99.90;;;;;;5057629;28;20469;-67
2022/09/05 01:56:28;;;;;;;3.90;1.75;;;15.30;99.90;;;;;;5046776;28;20041;-66
2022/09/05 01:59:19;;;;;;;4.22;2.28;;;15.20;99.90;;;;;;5059145;28;20053;-66
2022/09/05 02:02:14;;;;;;;6.38;2.20;;;15.20;99.90;;;;;;5061160;28;20040;-66
2022/09/05 02:05:02;;;;;;;3.22;2.33;;;15.20;99.90;;;;;;5060602;28;20049;-66
2022/09/05 02:07:49;;;;;;;2.45;1.83;;;15.20;99.90;;;;;;5064382;28;20044;-66
2022/09/05 02:10:47;;;;;;;5.47;2.42;;;15.20;99.90;;;;;;5065261;28;20040;-65
2022/09/05 02:13:34;;;;;;;2.47;1.90;;;15.20;99.90;;;;;;5065309;28;20033;-66
2022/09/05 02:16:31;;;;;;;3.10;2.30;;;15.20;99.90;;;;;;5062879;28;20536;-67
2022/09/05 02:19:08;;;;;;;4.97;2.33;;;15.20;99.90;;;;;;5064411;28;20040;-66
2022/09/05 02:21:37;;;;;;;2.65;1.63;;;15.20;99.90;;;;;;5064965;28;20097;-66
2022/09/05 02:24:26;;;;;;;2.60;2.28;;;15.20;99.90;;;;;;5063585;28;20059;-65
2022/09/05 02:26:51;;;;;;;2.65;1.80;;;15.20;99.90;;;;;;5063177;28;20070;-65
2022/09/05 02:29:24;;;;;;;;;;;15.20;99.90;;;;;;5063567;28;20064;-66
2022/09/05 02:32:17;;;;;;;2.50;1.98;;;15.20;99.90;;;;;;5077399;27;20338;-66
2022/09/05 02:34:52;;;;;;;3.33;2.17;;;15.20;99.90;;;;;;5087148;28;20061;-66
2022/09/05 02:37:28;;;;;;;4.22;2.40;;;15.10;99.90;;;;;;5095784;28;20040;-66
2022/09/05 02:40:17;;;;;;;2.88;1.83;;;15.10;99.90;;;;;;5092968;28;20047;-66
2022/09/05 02:43:02;;;;;;;2.42;1.92;;;15.10;99.90;;;;;;5089145;28;20177;-66
2022/09/05 02:45:40;;;;;;;3.22;2.28;;;15.00;99.90;;;;;;5093879;28;20078;-66
2022/09/05 02:48:20;;;;;;;3.40;2.05;;;15.00;99.90;;;;;;5091403;28;20055;-66
2022/09/05 02:51:12;;;;;;;3.00;2.05;;;15.00;99.90;;;;;;5094301;28;20736;-66
2022/09/05 02:53:43;;;;;;;2.53;1.70;;;15.00;99.90;;;;;;5060609;28;20112;-66
2022/09/05 02:56:41;;;;;;;2.97;1.98;;;14.90;99.90;;;;;;5088025;28;20094;-67
2022/09/05 02:59:38;;;;;;;2.05;1.50;;;14.90;99.90;;;;;;5087136;28;20052;-64
2022/09/05 03:02:44;;;;;;;3.92;1.88;;;14.90;99.90;;;;;;5100331;28;20539;-65
2022/09/05 03:05:23;;;;;;;3.13;2.28;;;14.90;99.90;;;;;;5094230;28;20027;-65
2022/09/05 03:08:14;;;;;;;3.63;1.67;;;14.80;99.90;;;;;;5094288;28;20116;-65
2022/09/05 03:10:59;;;;;;;3.17;2.05;;;14.80;99.90;;;;;;5090819;28;20387;-66
2022/09/05 03:13:56;;;;;;;5.07;2.08;;;14.70;99.90;;;;;;5092419;28;20122;-66
2022/09/05 03:16:49;;;;;;;2.88;2.00;;;14.70;99.90;;;;;;5081987;28;20500;-66
2022/09/05 03:19:52;;;;;;;2.35;2.03;;;14.70;99.90;;;;;;5093294;28;20040;-67
2022/09/05 03:22:55;;;;;;;5.30;1.98;;;14.60;99.90;;;;;;5094599;28;20062;-66
2022/09/05 03:25:40;;;;;;;3.70;2.33;;;14.60;99.90;;;;;;5095890;28;20039;-64
2022/09/05 03:28:33;;;;;;;2.42;1.90;;;14.50;99.90;;;;;;5092199;28;20047;-65
2022/09/05 03:31:09;;;;;;;3.13;2.38;;;14.50;99.90;;;;;;5074582;28;20404;-64
2022/09/05 03:34:18;;;;;;;3.90;2.00;;;14.50;99.90;;;;;;5061080;28;20136;-65
2022/09/05 03:37:07;;;;;;;2.88;2.10;;;14.50;99.90;;;;;;5059748;28;20531;-65
2022/09/05 03:39:57;;;;;;;2.83;2.00;;;14.50;99.90;;;;;;5058025;28;20677;-64
2022/09/05 03:42:50;;;;;;;3.35;2.00;;;14.40;99.90;;;;;;5056574;28;20085;-65
2022/09/05 03:45:40;;;;;;;3.67;1.88;;;14.40;99.90;;;;;;5063892;28;20090;-65
2022/09/05 03:48:05;;;;;;;2.30;1.98;;;14.40;99.90;;;;;;5062218;28;20056;-64
2022/09/05 03:50:57;;;;;;;;;;;14.30;99.90;;;;;;5064884;28;20032;-64
2022/09/05 03:53:46;;;;;;;2.83;1.92;;;14.30;99.90;;;;;;5065201;28;19916;-64
2022/09/05 03:56:44;;;;;;;3.65;2.33;;;14.20;99.90;;;;;;5066945;28;20048;-68
2022/09/05 03:59:45;;;;;;;3.35;2.13;;;14.20;99.90;;;;;;5063468;28;20499;-66
2022/09/05 04:02:19;;;;;;;3.50;2.17;;;14.20;99.90;;;;;;5092324;28;20044;-66
2022/09/05 04:05:01;;;;;;;2.03;1.77;;;14.20;99.90;;;;;;5091724;28;20123;-66
2022/09/05 04:07:32;;;;;;;5.97;2.10;;;14.20;99.90;;;;;;5090895;28;20043;-66
2022/09/05 04:10:09;;;;;;;2.83;2.03;;;14.20;99.90;;;;;;5090231;28;20125;-67
2022/09/05 04:12:56;;;;;;;3.35;2.50;;;14.10;99.90;;;;;;5093538;28;20047;-66
2022/09/05 04:15:27;;;;;;;4.38;1.90;;;14.10;99.90;;;;;;5096729;28;20097;-66
2022/09/05 04:18:00;;;;;;;2.47;2.08;;;14.10;99.90;;;;;;5091355;28;20075;-66
2022/09/05 04:20:48;;;;;;;6.05;2.38;;;14.10;99.90;;;;;;5100138;28;20036;-66
2022/09/05 04:23:33;;;;;;;3.00;2.40;;;14.00;99.90;;;;;;5089964;28;20036;-66
2022/09/05 04:26:09;;;;;;;3.50;2.15;;;14.00;99.90;;;;;;5097170;28;20507;-66
2022/09/05 04:29:03;;;;;;;3.92;2.40;;;13.90;99.90;;;;;;5083129;28;20411;-65
2022/09/05 04:31:46;;;;;;;4.85;2.40;;;13.90;99.90;;;;;;5086230;28;20044;-66
2022/09/05 04:34:30;;;;;;;3.72;2.40;;;13.90;99.90;;;;;;5085290;28;20061;-67
2022/09/05 04:37:05;;;;;;;5.97;2.45;;;13.90;99.90;;;;;;5098989;28;20036;-67
2022/09/05 04:39:32;;;;;;;4.57;2.70;;;13.90;99.90;;;;;;5086578;28;20047;-67
2022/09/05 04:42:03;;;;;;;4.10;2.25;;;13.90;99.90;;;;;;5097018;28;20690;-67
2022/09/05 04:44:41;;;;;;;4.93;2.40;;;13.90;99.90;;;;;;5094994;27;20036;-67
2022/09/05 04:47:16;;;;;;;6.03;2.78;;;13.90;99.90;;;;;;5098435;27;20589;-68
2022/09/05 04:49:56;;;;;;;3.03;2.50;;;13.80;99.90;;;;;;5095513;28;20087;-67
2022/09/05 04:52:36;;;;;;;4.18;2.60;;;13.90;99.90;;;;;;5103954;28;20067;-67
2022/09/05 04:55:14;;;;;;;3.47;2.15;;;13.80;99.90;;;;;;5094798;28;20115;-66
2022/09/05 04:57:49;;;;;;;3.45;2.45;;;13.80;99.90;;;;;;5099103;28;20043;-66
2022/09/05 05:00:24;;;;;;;3.70;2.72;;;13.90;99.90;;;;;;5098710;28;20075;-67
2022/09/05 05:02:58;;;;;;;4.18;2.45;;;13.90;99.90;;;;;;5083677;28;20564;-68
2022/09/05 05:05:27;;;;;;;4.70;2.72;;;13.80;99.90;;;;;;5097933;28;20043;-66
2022/09/05 05:08:12;;;;;;;4.50;2.70;;;13.80;99.90;;;;;;5091942;28;20040;-64
2022/09/05 05:10:49;;;;;;;4.75;2.92;;;13.80;99.90;;;;;;5090124;28;20032;-63
2022/09/05 05:13:35;;;;;;;7.60;2.10;;;13.80;99.90;;;;;;5093213;28;20038;-63
2022/09/05 05:16:32;;;;;;;3.08;2.58;;;14.10;99.90;;;;;;5091844;28;20040;-64
2022/09/05 05:19:09;;;;;;;6.85;2.78;;;14.10;99.90;;;;;;5083841;28;20064;-63
2022/09/05 05:21:35;;;;;;;5.72;2.80;;;14.50;99.90;;;;;;5090877;28;20055;-64
2022/09/05 05:24:08;;;;;;;;;;;15.20;99.90;;;;;;5080561;28;20032;-64
2022/09/05 05:27:06;;;;;;;3.20;2.25;;;15.80;99.90;;;;;;5090918;28;19945;-64
2022/09/05 05:29:50;;;;;;;8.60;2.50;;;16.30;99.90;;;;;;5082869;28;20051;-66
2022/09/05 05:32:25;;;;;;;5.30;2.40;;;16.10;99.90;;;;;;5089640;28;20630;-66
2022/09/05 05:35:00;;;;;;;9.55;4.05;;;15.80;99.90;;;;;;5093607;28;20044;-65
2022/09/05 05:37:44;;;;;;;3.25;2.05;;;15.80;99.90;;;;;;5098719;28;20554;-65
2022/09/05 05:40:25;;;;;;;6.47;2.30;;;15.80;99.90;;;;;;5095994;28;20071;-65
2022/09/05 05:42:52;;;;;;;10.00;2.53;;;15.80;99.90;;;;;;5097113;28;20051;-65
2022/09/05 05:45:29;;;;;;;3.95;2.30;;;15.80;99.90;;;;;;5097762;28;20510;-66
2022/09/05 05:48:02;;;;;;;5.53;2.45;;;15.70;99.90;;;;;;5096141;28;20044;-63
2022/09/05 05:50:46;;;;;;;5.55;2.47;;;15.70;99.90;;;;;;5095545;28;20047;-67
2022/09/05 05:53:52;;;;;;;3.47;2.35;;;15.60;99.90;;;;;;5094394;28;20028;-65
2022/09/05 05:56:40;;;;;;;6.90;3.03;;;15.50;99.90;;;;;;5102959;28;20036;-67
2022/09/05 05:59:36;;;;;;;2.92;2.45;;;15.50;99.90;;;;;;5093284;28;20475;-67
2022/09/05 06:02:46;;;;;;;7.20;2.37;;;15.40;99.90;;;;;;5091660;28;20036;-68
2022/09/05 06:05:32;;;;;;;4.63;2.90;;;15.30;99.90;;;;;;5093427;28;20602;-64
2022/09/05 06:08:16;;;;;;;3.58;2.75;;;15.50;99.90;;;;;;5082613;28;20047;-66
2022/09/05 06:10:42;;;;;;;3.95;2.30;;;15.80;99.90;;;;;;5085975;28;21067;-65
2022/09/05 06:13:27;;;;;;;;;;;16.60;99.90;;;;;;5102497;28;20043;-67
2022/09/05 06:16:25;;;;;;;7.55;2.20;;;17.10;99.90;;;;;;5091864;28;19916;-66
2022/09/05 06:18:58;;;;;;;3.97;2.17;;;17.90;99.90;;;;;;5082522;28;20036;-65
2022/09/05 06:22:01;;;;;;;6.00;2.35;;;18.80;99.90;;;;;;5084621;28;20043;-67
2022/09/05 06:24:59;;;;;;;9.20;2.20;;;19.90;99.90;;;;;;5077252;28;20129;-67
2022/09/05 06:28:06;;;;;;;4.88;2.17;;;19.50;99.30;;;;;;5091405;28;20032;-67
2022/09/05 06:30:58;;;;;;;6.95;2.22;;;19.00;99.90;;;;;;5089740;28;20097;-67
2022/09/05 06:33:48;;;;;;;9.05;2.30;;;18.60;99.90;;;;;;5083734;28;20042;-67
2022/09/05 06:36:32;;;;;;;3.30;1.80;;;18.30;99.90;;;;;;5095269;28;20099;-68
2022/09/05 06:39:07;;;;;;;3.83;2.47;;;18.20;99.90;;;;;;5093098;28;20040;-67
2022/09/05 06:41:41;;;;;;;9.15;2.45;;;18.00;99.90;;;;;;5083470;28;20036;-66
2022/09/05 06:44:35;;;;;;;3.90;2.25;;;17.90;99.90;;;;;;5069781;28;20040;-68
2022/09/05 06:47:17;;;;;;;8.15;2.42;;;17.80;99.90;;;;;;5091565;28;20036;-67
2022/09/05 06:50:12;;;;;;;20.17;3.75;;;17.80;99.90;;;;;;5094613;28;20050;-65
2022/09/05 06:53:21;;;;;;;6.32;2.03;;;17.80;99.90;;;;;;5090735;28;20046;-65
2022/09/05 06:56:19;;;;;;;6.22;2.58;;;17.80;99.90;;;;;;5093491;28;20044;-65
2022/09/05 06:59:01;;;;;;;;;;;17.90;99.90;;;;;;5087723;28;20043;-65
2022/09/05 07:01:32;;;;;;;3.92;2.00;;;18.00;99.90;;;;;;5087147;28;19969;-65
2022/09/05 07:04:32;;;;;;;3.55;2.28;;;18.10;99.90;;;;;;5092341;28;20051;-65
2022/09/05 07:07:16;;;;;;;5.53;2.05;;;18.20;99.90;;;;;;5101200;28;20061;-67
2022/09/05 07:09:53;;;;;;;3.85;1.98;;;18.20;99.90;;;;;;5084777;28;20201;-67
2022/09/05 07:12:27;;;;;;;3.63;2.20;;;18.30;99.90;;;;;;5096764;28;20590;-67
2022/09/05 07:15:04;;;;;;;4.18;2.13;;;18.40;99.90;;;;;;5095526;28;20048;-67
2022/09/05 07:17:42;;;;;;;5.57;1.75;;;18.50;99.90;;;;;;5087459;28;20044;-67
2022/09/05 07:20:34;;;;;;;6.97;2.13;;;18.60;99.90;;;;;;5092370;28;20035;-68
2022/09/05 07:23:21;;;;;;;1.88;1.30;;;18.80;99.90;;;;;;5062896;28;20056;-68
2022/09/05 07:25:50;;;;;;;4.88;1.60;;;19.00;99.90;;;;;;5087947;28;20048;-68
2022/09/05 07:28:18;;;;;;;1.90;1.40;;;19.00;99.90;;;;;;5102046;28;20039;-67
2022/09/05 07:30:50;;;;;;;5.50;1.38;;;19.20;99.90;;;;;;5094276;28;20071;-66
2022/09/05 07:33:23;;;;;;;2.38;1.33;;;19.30;99.90;;;;;;5095793;28;20050;-67
2022/09/05 07:35:50;;;;;;;3.58;1.20;;;19.40;99.90;;;;;;5094156;28;20040;-67
2022/09/05 07:38:24;;;;;;;1.98;1.42;;;19.60;99.70;;;;;;5096898;28;20388;-67
2022/09/05 07:41:00;;;;;;;1.77;1.30;;;19.80;99.90;;;;;;5096784;28;20043;-66
2022/09/05 07:43:29;;;;;;;1.85;1.45;;;19.80;99.90;;;;;;5087723;28;20094;-67
2022/09/05 07:46:12;;;;;;;2.38;1.42;;;19.90;99.30;;;;;;5101102;28;20043;-66
2022/09/05 07:48:58;;;;;;;2.05;1.23;;;19.90;98.50;;;;;;5090235;28;20123;-65
2022/09/05 07:51:27;;;;;;;1.95;1.08;;;20.00;98.80;;;;;;5089536;28;20035;-66
2022/09/05 07:53:56;;;;;;;2.25;1.10;;;20.10;98.20;;;;;;5073726;28;20504;-67
2022/09/05 07:56:51;;;;;;;6.18;1.60;;;20.30;97.50;;;;;;5078150;28;20051;-67
2022/09/05 07:59:19;;;;;;;2.70;1.50;;;20.40;97.50;;;;;;5097993;28;20130;-66
2022/09/05 08:01:47;;;;;;;2.75;1.30;;;20.50;96.70;;;;;;5105736;28;20036;-65
2022/09/05 08:04:28;;;;;;;1.77;1.27;;;20.70;96.50;;;;;;5088380;28;20043;-66
2022/09/05 08:06:56;;;;;;;2.40;1.10;;;21.00;96.30;;;;;;5106820;27;20055;-67
2022/09/05 08:09:26;;;;;;;3.47;1.50;;;22.10;95.10;;;;;;5080764;28;20463;-68
2022/09/05 08:12:08;;;;;;;3.33;1.00;;;23.70;92.00;;;;;;5103888;28;20039;-68
2022/09/05 08:14:44;;;;;;;2.83;1.35;;;25.60;88.30;;;;;;5088074;28;20376;-67
2022/09/05 08:17:16;;;;;;;1.75;1.23;;;27.30;83.20;;;;;;5093762;28;20139;-67
2022/09/05 08:19:55;;;;;;;1.38;0.88;;;28.00;78.00;;;;;;5098478;28;20051;-67
2022/09/05 08:22:25;;;;;;;1.40;1.02;;;28.50;75.50;;;;;;5097388;28;20384;-67
2022/09/05 08:25:14;;;;;;;2.15;1.23;;;29.30;74.30;;;;;;5091291;28;20047;-68
2022/09/05 08:27:59;;;;;;;1.25;0.93;;;29.40;72.50;;;;;;5089866;28;20047;-67
2022/09/05 08:30:26;;;;;;;1.43;0.83;;;30.00;71.90;;;;;;5077450;27;20054;-67
2022/09/05 08:33:01;;;;;;;1.13;0.93;;;30.00;70.00;;;;;;5084784;28;20697;-67
2022/09/05 08:35:42;;;;;;;2.08;1.13;;;29.90;70.70;;;;;;5100279;28;20042;-67
2022/09/05 08:38:10;;;;;;;2.05;1.02;;;29.00;71.10;;;;;;5085349;28;20038;-67
2022/09/05 08:40:45;;;;;;;3.75;1.23;;;27.90;75.60;;;;;;5098667;28;20050;-67
2022/09/05 08:43:17;;;;;;;2.38;1.15;;;26.60;78.60;;;;;;5080195;28;20051;-68
2022/09/05 08:45:55;;;;;;;3.97;1.10;;;25.70;81.00;;;;;;5099491;28;20051;-67
2022/09/05 08:49:04;;;;;;;4.03;0.90;;;25.00;82.30;;;;;;5088060;28;20040;-67
2022/09/05 08:52:01;;;;;;;1.27;0.80;;;24.40;84.20;;;;;;5091723;28;20047;-67
2022/09/05 08:54:37;;;;;;;1.13;1.02;;;24.10;86.20;;;;;;5075196;28;20298;-66
2022/09/05 08:57:44;;;;;;;2.95;1.23;;;24.00;86.20;;;;;;5095965;28;20079;-66
2022/09/05 09:00:14;;;;;;;5.05;1.00;;;23.90;86.80;;;;;;5097417;28;20032;-66
2022/09/05 09:02:57;;;;;;;1.65;1.20;;;23.90;87.40;;;;;;5088056;28;20028;-66
2022/09/05 09:05:45;;;;;;;1.35;1.20;;;23.90;87.30;;;;;;5094057;28;20067;-67
2022/09/05 09:08:19;;;;;;;7.85;1.23;;;23.60;87.20;;;;;;5100871;28;20126;-67
2022/09/05 09:11:04;;;;;;;3.45;1.50;;;23.60;86.80;;;;;;5089102;28;20043;-66
2022/09/05 09:13:30;;;;;;;4.18;1.48;;;23.60;86.20;;;;;;5087676;28;20550;-67
2022/09/05 09:16:29;;;;;;;3.97;1.63;;;23.50;87.30;;;;;;5103140;28;20127;-66
2022/09/05 09:19:24;;;;;;;2.58;1.40;;;23.60;87.50;;;;;;5086188;28;20047;-65
2022/09/05 09:22:35;;;;;;;1.92;1.27;;;23.60;87.50;;;;;;5102409;28;20081;-66
2022/09/05 09:25:15;;;;;;;4.93;1.20;;;23.80;85.20;;;;;;5080419;28;20555;-67
2022/09/05 09:27:49;;;;;;;2.47;1.00;;;24.00;86.10;;;;;;5093508;28;20069;-67
2022/09/05 09:30:17;;;;;;;1.75;1.10;;;24.30;86.50;;;;;;5097737;28;20043;-67
2022/09/05 09:32:48;;;;;;;2.40;1.20;;;24.40;83.90;;;;;;5094197;28;20039;-66
2022/09/05 09:35:16;;;;;;;1.10;1.00;;;24.30;85.20;;;;;;5096771;28;20035;-66
2022/09/05 09:38:35;;;;;;;1.67;1.10;;;24.40;84.30;;;;;;5095075;28;20146;-66
2022/09/05 09:41:31;;;;;;;1.45;0.90;;;24.60;84.20;;;;;;5023561;28;20077;-67
2022/09/05 09:44:02;;;;;;;2.17;1.02;;;24.40;83.00;;;;;;5086676;28;20036;-66
2022/09/05 09:46:32;;;;;;;1.85;1.10;;;24.30;84.70;;;;;;5101205;28;20133;-66
2022/09/05 09:49:23;;;;;;;1.90;0.95;;;24.30;85.80;;;;;;5090775;28;20114;-67
2022/09/05 09:51:56;;;;;;;4.22;1.33;;;24.30;84.50;;;;;;5099855;28;20400;-67
2022/09/05 09:55:00;;;;;;;1.02;0.93;;;24.30;83.60;;;;;;5094728;28;20039;-68
2022/09/05 09:58:03;;;;;;;6.10;1.10;;;24.00;84.40;;;;;;5097326;28;20039;-66
2022/09/05 10:00:50;;;;;;;1.95;1.08;;;24.30;82.30;;;;;;5088789;28;20074;-65
2022/09/05 10:03:40;;;;;;;6.90;1.60;;;24.50;83.60;;;;;;5090767;28;20170;-66
2022/09/05 10:06:26;;;;;;;2.03;1.08;;;24.30;82.70;;;;;;5099993;28;20106;-68
2022/09/05 10:09:10;;;;;;;2.08;1.42;;;24.20;85.20;;;;;;5089199;28;20032;-67
2022/09/05 10:11:37;;;;;;;2.30;1.02;;;23.90;84.40;;;;;;5087760;28;20097;-67
2022/09/05 10:14:51;;;;;;;2.40;1.10;;;23.70;84.00;;;;;;5090815;28;20072;-66
2022/09/05 10:17:23;;;;;;;2.80;1.40;;;23.50;85.10;;;;;;5096603;28;20071;-66
2022/09/05 10:19:49;;;;;;;2.92;1.25;;;23.40;84.90;;;;;;5095934;28;20066;-67
2022/09/05 10:22:50;;;;;;;6.30;1.50;;;23.60;84.90;;;;;;5100136;28;20511;-66
2022/09/05 10:25:56;;;;;;;3.20;1.00;;;23.90;84.00;;;;;;5094375;28;20047;-67
2022/09/05 10:28:58;;;;;;;2.78;0.93;;;23.90;83.00;;;;;;5087513;28;20399;-66
2022/09/05 10:31:55;;;;;;;2.25;1.10;;;23.70;83.80;;;;;;5086043;27;20040;-65
2022/09/05 10:34:28;;;;;;;2.13;1.00;;;23.60;84.50;;;;;;5081690;28;20031;-65
2022/09/05 10:37:08;;;;;;;2.03;1.13;;;23.40;85.60;;;;;;5097365;28;20044;-66
2022/09/05 10:39:39;;;;;;;3.22;1.38;;;23.60;85.80;;;;;;5085416;28;20043;-66
2022/09/05 10:42:14;;;;;;;1.95;1.08;;;23.90;85.30;;;;;;5097078;28;20062;-65
2022/09/05 10:44:54;;;;;;;2.67;1.45;;;24.20;83.80;;;;;;5096001;28;20083;-66
2022/09/05 10:47:38;;;;;;;1.40;1.30;;;24.40;83.20;;;;;;5097211;28;20044;-65
2022/09/05 10:50:26;;;;;;;1.20;0.90;;;24.60;82.20;;;;;;5093274;28;20070;-65
2022/09/05 10:52:58;;;;;;;5.30;1.40;;;24.80;81.60;;;;;;5086441;28;20134;-66
2022/09/05 10:55:29;;;;;;;2.88;1.30;;;24.70;81.60;;;;;;5086997;28;20047;-66
2022/09/05 10:58:10;;;;;;;1.80;1.10;;;24.50;81.60;;;;;;5086388;28;20131;-66
2022/09/05 11:00:55;;;;;;;1.92;1.27;;;24.70;81.60;;;;;;5073501;28;20381;-66
2022/09/05 11:03:29;;;;;;;3.00;1.38;;;24.80;80.70;;;;;;5078294;28;20058;-67
2022/09/05 11:06:04;;;;;;;2.05;0.98;;;24.90;79.70;;;;;;5074617;28;20049;-66
2022/09/05 11:08:36;;;;;;;2.55;1.13;;;24.90;78.30;;;;;;5077186;28;20032;-64
2022/09/05 11:11:13;;;;;;;2.38;1.25;;;24.80;78.60;;;;;;5079206;28;20488;-65
2022/09/05 11:13:51;;;;;;;1.67;1.10;;;24.80;78.40;;;;;;5071617;28;20028;-65
2022/09/05 11:16:38;;;;;;;1.77;1.17;;;24.80;78.40;;;;;;5079620;28;20057;-66
2022/09/05 11:19:16;;;;;;;;;;;25.00;77.30;;;;;;5078673;28;20029;-66
2022/09/05 11:21:51;;;;;;;1.30;0.90;;;25.20;76.80;;;;;;5080243;28;20395;-66
2022/09/05 11:24:28;;;;;;;2.10;0.90;;;25.40;76.70;;;;;;5075713;28;20059;-66
2022/09/05 11:27:35;;;;;;;1.30;1.10;;;25.50;76.90;;;;;;5075250;28;20463;-66
2022/09/05 11:30:15;;;;;;;1.70;0.95;;;25.50;73.10;;;;;;5076778;28;20569;-65
2022/09/05 11:32:49;;;;;;;1.10;0.90;;;25.70;74.30;;;;;;5078194;28;20066;-65
2022/09/05 11:35:26;;;;;;;3.45;1.20;;;25.70;74.60;;;;;;5079617;28;20527;-66
2022/09/05 11:37:58;;;;;;;3.28;1.58;;;25.70;74.70;;;;;;5085799;28;20051;-66
2022/09/05 11:40:44;;;;;;;3.90;1.08;;;25.80;72.50;;;;;;5088382;28;20044;-65
2022/09/05 11:43:55;;;;;;;1.95;0.88;;;25.80;71.50;;;;;;5091511;28;20071;-65
2022/09/05 11:46:36;;;;;;;2.80;1.33;;;25.80;70.20;;;;;;5088087;28;20054;-65
2022/09/05 11:49:31;;;;;;;1.83;1.00;;;25.80;71.90;;;;;;5084498;28;20533;-64
2022/09/05 11:52:21;;;;;;;3.22;1.00;;;25.70;72.50;;;;;;5096791;28;20779;-64
2022/09/05 11:55:15;;;;;;;1.95;1.02;;;25.60;71.60;;;;;;5089066;28;20042;-65
2022/09/05 11:57:54;;;;;;;2.55;1.08;;;25.40;72.30;;;;;;5089885;28;20123;-65
2022/09/05 12:00:40;;;;;;;1.65;0.80;;;25.40;69.60;;;;;;5091497;28;20032;-65
2022/09/05 12:03:40;;;;;;;1.88;1.00;;;25.20;69.40;;;;;;5092052;28;20044;-65
2022/09/05 12:06:43;;;;;;;0.80;0.80;;;25.00;70.70;;;;;;5082877;28;20055;-65
2022/09/05 12:09:20;;;;;;;1.77;1.08;;;25.00;70.20;;;;;;5066284;28;20048;-64
2022/09/05 12:12:21;;;;;;;0.90;0.80;;;25.30;67.10;;;;;;5088858;28;20047;-64
2022/09/05 12:15:02;;;;;;;1.88;0.93;;;25.60;65.80;;;;;;5090307;28;20047;-64
2022/09/05 12:17:48;;;;;;;2.08;1.10;;;25.70;65.00;;;;;;5087497;28;20052;-65
2022/09/05 12:20:21;;;;;;;2.05;0.85;;;25.90;65.70;;;;;;5095848;28;20123;-65
2022/09/05 12:23:25;;;;;;;2.67;1.73;;;26.00;65.90;;;;;;5087134;28;20048;-65
2022/09/05 12:26:02;;;;;;;4.88;1.27;;;26.20;66.80;;;;;;5087512;28;20222;-65
2022/09/05 12:28:44;;;;;;;4.50;0.95;;;26.00;67.30;;;;;;5086872;28;20086;-65
2022/09/05 12:31:17;;;;;;;3.15;0.88;;;26.00;67.60;;;;;;5098315;28;20111;-65
2022/09/05 12:33:47;;;;;;;2.90;0.98;;;26.20;65.50;;;;;;5091587;28;20040;-65
2022/09/05 12:36:39;;;;;;;2.97;1.20;;;26.30;65.10;;;;;;5095619;28;20045;-65
2022/09/05 12:39:34;;;;;;;4.30;1.08;;;26.40;64.20;;;;;;5089013;28;20059;-65
2022/09/05 12:42:09;;;;;;;1.77;1.15;;;26.60;63.30;;;;;;5100801;28;20093;-65
2022/09/05 12:45:08;;;;;;;6.43;1.10;;;26.60;64.20;;;;;;5092351;28;20043;-64
2022/09/05 12:47:55;;;;;;;3.53;1.20;;;26.60;64.00;;;;;;5096943;28;20046;-65
2022/09/05 12:50:32;;;;;;;1.33;0.80;;;26.70;63.40;;;;;;5092136;28;20049;-66
2022/09/05 12:53:14;;;;;;;3.33;1.13;;;26.70;65.30;;;;;;5093836;28;20388;-67
2022/09/05 12:55:46;;;;;;;1.40;0.70;;;26.60;65.90;;;;;;5098831;28;20058;-67
2022/09/05 12:58:26;;;;;;;2.00;1.23;;;26.40;66.40;;;;;;5090412;28;20996;-67
2022/09/05 13:01:05;;;;;;;2.83;1.10;;;26.00;67.50;;;;;;5097006;28;20134;-66
2022/09/05 13:03:36;;;;;;;6.45;1.35;;;25.80;67.60;;;;;;5085453;28;20064;-67
2022/09/05 13:06:04;;;;;;;3.25;1.27;;;25.70;68.90;;;;;;5100021;28;20706;-67
2022/09/05 13:08:46;;;;;;;2.72;1.05;;;25.60;69.80;;;;;;5092095;28;20036;-66
2022/09/05 13:11:16;;;;;;;1.17;0.90;;;25.70;69.40;;;;;;5096122;28;20044;-64
2022/09/05 13:13:52;;;;;;;2.35;1.15;;;25.70;70.00;;;;;;5091382;28;20047;-65
2022/09/05 13:16:21;;;;;;;1.48;1.20;;;25.70;70.30;;;;;;5099070;28;20032;-65
2022/09/05 13:18:51;;;;;;;2.15;1.00;;;26.00;69.10;;;;;;5088221;28;20047;-64
2022/09/05 13:21:22;;;;;;;1.40;1.00;;;25.80;69.40;;;;;;5102730;28;20035;-65
2022/09/05 13:24:10;;;;;;;2.13;1.30;;;25.60;70.00;;;;;;5085130;28;20044;-66
2022/09/05 13:26:36;;;;;;;7.03;1.23;;;25.40;70.60;;;;;;5089120;28;20047;-65
2022/09/05 13:29:18;;;;;;;1.60;1.30;;;25.30;71.30;;;;;;5091385;28;20047;-65
2022/09/05 13:31:49;;;;;;;4.32;1.55;;;25.10;72.60;;;;;;5093898;28;20032;-65
2022/09/05 13:34:30;;;;;;;3.65;1.10;;;25.10;73.30;;;;;;5095294;28;20074;-66
2022/09/05 13:37:15;;;;;;;1.70;1.10;;;25.10;73.50;;;;;;5080361;28;20097;-65
2022/09/05 13:39:58;;;;;;;1.33;1.17;;;25.30;71.60;;;;;;5096069;28;20040;-64
2022/09/05 13:42:29;;;;;;;2.03;1.20;;;25.50;73.00;;;;;;5092553;28;20039;-66
2022/09/05 13:44:59;;;;;;;3.58;1.30;;;25.50;72.50;;;;;;5090775;28;20039;-67
2022/09/05 13:47:40;;;;;;;4.00;1.27;;;25.50;71.50;;;;;;5086443;28;20774;-66
2022/09/05 13:50:25;;;;;;;2.17;1.40;;;25.40;72.90;;;;;;5086124;27;20028;-67
2022/09/05 13:53:06;;;;;;;1.33;1.23;;;25.30;71.20;;;;;;5100840;28;20036;-66
2022/09/05 13:55:40;;;;;;;3.13;1.60;;;25.10;74.50;;;;;;5092543;28;20044;-66
2022/09/05 13:58:15;;;;;;;2.80;1.25;;;25.00;72.40;;;;;;5092922;28;20067;-66
2022/09/05 14:00:42;;;;;;;7.22;1.30;;;24.90;74.30;;;;;;5100745;27;20678;-66
2022/09/05 14:03:26;;;;;;;2.92;1.23;;;24.80;75.70;;;;;;5082504;28;20051;-66
2022/09/05 14:06:20;;;;;;;2.53;1.40;;;24.70;73.50;;;;;;5096019;28;20044;-64
2022/09/05 14:08:54;;;;;;;1.83;1.10;;;24.80;72.60;;;;;;5072757;28;20421;-64